createdAt,value
2022-10-16T00:01:07.308Z,15.80
2022-10-16T00:03:35.622Z,15.79
2022-10-16T00:06:04.143Z,15.80
2022-10-16T00:08:32.454Z,15.70
2022-10-16T00:11:04.870Z,15.72
2022-10-16T00:13:35.388Z,15.76
2022-10-16T00:16:04.431Z,15.84
2022-10-16T00:18:32.984Z,15.88
2022-10-16T00:21:05.538Z,15.85
2022-10-16T00:23:33.959Z,15.85
2022-10-16T00:26:03.662Z,15.82
2022-10-16T00:28:32.434Z,15.78
2022-10-16T00:31:05.335Z,15.72
2022-10-16T00:33:33.347Z,15.68
2022-10-16T00:36:01.817Z,15.60
2022-10-16T00:38:30.005Z,15.56
2022-10-16T00:40:58.345Z,15.61
2022-10-16T00:43:39.123Z,15.62
2022-10-16T00:46:16.909Z,15.62
2022-10-16T00:48:51.622Z,15.63
2022-10-16T00:51:23.855Z,15.57
2022-10-16T00:53:52.465Z,15.57
2022-10-16T00:56:20.570Z,15.55
2022-10-16T00:58:48.672Z,15.50
2022-10-16T01:01:18.096Z,15.47
2022-10-16T01:03:46.259Z,15.46
2022-10-16T01:09:09.196Z,15.37
2022-10-16T01:11:44.180Z,15.36
2022-10-16T01:14:19.777Z,15.36
2022-10-16T01:16:55.159Z,15.36
2022-10-16T01:19:38.667Z,15.36
2022-10-16T01:22:09.380Z,15.36
2022-10-16T01:24:41.559Z,15.35
2022-10-16T01:27:16.792Z,15.32
2022-10-16T01:29:54.323Z,15.30
2022-10-16T01:32:33.479Z,15.32
2022-10-16T01:35:05.650Z,15.33
2022-10-16T01:37:39.695Z,15.25
2022-10-16T01:40:11.930Z,15.20
2022-10-16T01:42:44.901Z,15.17
2022-10-16T01:45:19.069Z,15.12
2022-10-16T01:47:48.920Z,15.07
2022-10-16T01:50:20.222Z,15.08
2022-10-16T01:52:51.808Z,15.06
2022-10-16T01:55:23.124Z,15.11
2022-10-16T01:57:54.962Z,15.17
2022-10-16T02:00:24.748Z,15.09
2022-10-16T02:02:56.255Z,15.04
2022-10-16T02:05:29.097Z,15.01
2022-10-16T02:07:58.554Z,14.97
2022-10-16T02:10:32.398Z,14.92
2022-10-16T02:13:08.832Z,14.88
2022-10-16T02:15:36.980Z,14.88
2022-10-16T02:18:05.753Z,14.81
2022-10-16T02:20:42.455Z,14.83
2022-10-16T02:23:17.072Z,14.84
2022-10-16T02:25:47.664Z,14.85
2022-10-16T02:28:20.809Z,14.86
2022-10-16T02:30:54.419Z,14.92
2022-10-16T02:33:25.714Z,14.89
2022-10-16T02:35:54.889Z,14.90
2022-10-16T02:38:24.092Z,14.89
2022-10-16T02:40:52.447Z,14.87
2022-10-16T02:43:22.306Z,14.83
2022-10-16T02:45:50.302Z,14.84
2022-10-16T02:48:18.240Z,14.83
2022-10-16T02:50:46.212Z,14.89
2022-10-16T02:53:14.148Z,14.93
2022-10-16T02:55:42.155Z,14.88
2022-10-16T02:58:10.149Z,14.86
2022-10-16T03:00:39.576Z,14.86
2022-10-16T03:03:07.703Z,14.87
2022-10-16T03:05:35.620Z,14.84
2022-10-16T03:08:03.585Z,14.80
2022-10-16T03:10:31.586Z,14.79
2022-10-16T03:13:00.110Z,14.64
2022-10-16T03:15:29.217Z,14.41
2022-10-16T03:17:59.993Z,14.43
2022-10-16T03:20:28.306Z,14.52
2022-10-16T03:22:56.244Z,14.59
2022-10-16T03:25:24.240Z,14.63
2022-10-16T03:27:52.177Z,14.51
2022-10-16T03:30:20.080Z,14.57
2022-10-16T03:32:48.003Z,14.64
2022-10-16T03:35:17.346Z,14.71
2022-10-16T03:37:45.255Z,14.73
2022-10-16T03:40:13.654Z,14.80
2022-10-16T03:42:41.653Z,14.84
2022-10-16T03:45:10.390Z,14.86
2022-10-16T03:47:38.359Z,14.90
2022-10-16T03:50:07.365Z,14.88
2022-10-16T03:52:36.641Z,14.91
2022-10-16T03:55:04.855Z,14.93
2022-10-16T03:57:32.763Z,14.94
2022-10-16T04:00:00.757Z,14.99
2022-10-16T04:02:28.803Z,14.97
2022-10-16T04:04:56.740Z,14.90
2022-10-16T04:07:25.000Z,14.80
2022-10-16T04:09:54.509Z,14.78
2022-10-16T04:12:22.500Z,14.77
2022-10-16T04:14:50.456Z,14.71
2022-10-16T04:17:18.442Z,14.71
2022-10-16T04:19:46.363Z,14.71
2022-10-16T04:22:14.527Z,14.72
2022-10-16T04:24:42.518Z,14.73
2022-10-16T04:27:11.968Z,14.73
2022-10-16T04:29:39.897Z,14.73
2022-10-16T04:32:09.780Z,14.74
2022-10-16T04:34:39.140Z,14.71
2022-10-16T04:37:07.445Z,14.68
2022-10-16T04:39:35.560Z,14.74
2022-10-16T04:42:03.712Z,14.73
2022-10-16T04:44:33.426Z,14.73
2022-10-16T04:47:01.432Z,14.74
2022-10-16T04:49:29.351Z,14.73
2022-10-16T04:51:57.359Z,14.73
2022-10-16T04:54:25.624Z,14.74
2022-10-16T04:56:53.659Z,14.75
2022-10-16T04:59:22.291Z,14.69
2022-10-16T05:01:52.153Z,14.67
2022-10-16T05:04:20.098Z,14.63
2022-10-16T05:06:48.054Z,14.61
2022-10-16T05:09:15.977Z,14.62
2022-10-16T05:11:43.913Z,14.60
2022-10-16T05:16:44.718Z,14.54
2022-10-16T05:19:29.435Z,14.54
2022-10-16T05:21:57.623Z,14.56
2022-10-16T05:24:25.635Z,14.53
2022-10-16T05:26:53.677Z,14.56
2022-10-16T05:29:21.707Z,14.61
2022-10-16T05:31:52.885Z,14.63
2022-10-16T05:34:22.656Z,14.60
2022-10-16T05:36:51.092Z,14.61
2022-10-16T05:39:19.029Z,14.65
2022-10-16T05:41:51.621Z,14.68
2022-10-16T05:44:19.699Z,14.69
2022-10-16T05:46:49.935Z,14.73
2022-10-16T05:49:18.590Z,14.75
2022-10-16T05:51:50.360Z,14.73
2022-10-16T05:54:18.505Z,14.70
2022-10-16T05:56:46.886Z,14.71
2022-10-16T05:59:15.119Z,14.74
2022-10-16T06:01:46.257Z,14.81
2022-10-16T06:04:14.403Z,14.80
2022-10-16T06:06:42.583Z,14.80
2022-10-16T06:09:12.785Z,14.78
2022-10-16T06:11:40.730Z,14.73
2022-10-16T06:14:10.146Z,14.72
2022-10-16T06:16:39.445Z,14.68
2022-10-16T06:19:09.197Z,14.75
2022-10-16T06:21:37.162Z,14.73
2022-10-16T06:24:05.749Z,14.71
2022-10-16T06:26:35.064Z,14.66
2022-10-16T06:29:03.427Z,14.67
2022-10-16T06:31:34.587Z,14.67
2022-10-16T06:34:03.103Z,14.68
2022-10-16T06:36:31.143Z,14.68
2022-10-16T06:38:59.085Z,14.68
2022-10-16T06:41:26.976Z,14.68
2022-10-16T06:43:56.265Z,14.75
2022-10-16T06:46:26.033Z,14.76
2022-10-16T06:48:54.778Z,14.78
2022-10-16T06:51:24.374Z,14.85
2022-10-16T06:54:09.948Z,14.85
2022-10-16T06:56:38.624Z,14.90
2022-10-16T06:59:07.942Z,15.00
2022-10-16T07:01:35.915Z,15.04
2022-10-16T07:04:04.385Z,15.07
2022-10-16T07:06:34.694Z,15.14
2022-10-16T07:09:06.566Z,15.17
2022-10-16T07:11:35.420Z,15.22
2022-10-16T07:14:03.419Z,15.33
2022-10-16T07:16:34.608Z,15.42
2022-10-16T07:19:04.818Z,15.49
2022-10-16T07:21:36.702Z,15.51
2022-10-16T07:24:06.918Z,15.56
2022-10-16T07:26:37.175Z,15.61
2022-10-16T07:29:05.538Z,15.67
2022-10-16T07:31:35.299Z,15.73
2022-10-16T07:34:03.281Z,15.70
2022-10-16T07:36:31.229Z,15.63
2022-10-16T07:39:00.327Z,15.44
2022-10-16T07:41:29.032Z,15.52
2022-10-16T07:43:58.351Z,15.60
2022-10-16T07:46:26.410Z,15.61
2022-10-16T07:48:55.872Z,15.59
2022-10-16T07:51:25.945Z,15.58
2022-10-16T07:53:54.578Z,15.49
2022-10-16T07:56:23.311Z,15.50
2022-10-16T07:58:52.532Z,15.59
2022-10-16T08:01:21.480Z,15.58
2022-10-16T08:03:51.326Z,15.76
2022-10-16T08:06:26.695Z,15.99
2022-10-16T08:08:56.596Z,16.16
2022-10-16T08:11:25.541Z,16.29
2022-10-16T08:13:53.663Z,16.39
2022-10-16T08:16:21.689Z,16.39
2022-10-16T08:18:49.638Z,16.43
2022-10-16T08:21:21.772Z,16.52
2022-10-16T08:23:54.576Z,16.49
2022-10-16T08:26:26.941Z,16.40
2022-10-16T08:28:55.534Z,16.46
2022-10-16T08:31:24.125Z,16.59
2022-10-16T08:33:53.269Z,16.69
2022-10-16T08:36:22.913Z,16.74
2022-10-16T08:38:52.162Z,16.76
2022-10-16T08:41:45.404Z,16.81
2022-10-16T08:44:32.523Z,16.86
2022-10-16T08:47:10.500Z,16.91
2022-10-16T08:49:39.999Z,16.95
2022-10-16T08:52:15.112Z,16.97
2022-10-16T08:54:47.613Z,17.01
2022-10-16T08:57:21.473Z,17.06
2022-10-16T08:59:52.168Z,17.12
2022-10-16T09:02:29.324Z,17.16
2022-10-16T09:05:26.264Z,17.19
2022-10-16T09:08:13.219Z,17.25
2022-10-16T09:10:52.082Z,17.33
2022-10-16T09:13:26.595Z,17.39
2022-10-16T09:16:06.592Z,17.44
2022-10-16T09:18:43.101Z,17.47
2022-10-16T09:21:17.967Z,17.48
2022-10-16T09:23:47.830Z,17.54
2022-10-16T09:26:17.653Z,17.55
2022-10-16T09:28:46.320Z,17.61
2022-10-16T09:31:22.636Z,17.69
2022-10-16T09:33:54.811Z,17.72
2022-10-16T09:36:25.364Z,17.76
2022-10-16T09:39:05.065Z,17.79
2022-10-16T09:41:36.245Z,17.84
2022-10-16T09:44:05.648Z,17.87
2022-10-16T09:46:35.621Z,17.91
2022-10-16T09:49:05.827Z,17.95
2022-10-16T09:51:36.357Z,17.89
2022-10-16T09:54:17.212Z,17.97
2022-10-16T09:56:46.719Z,18.02
2022-10-16T09:59:16.503Z,17.99
2022-10-16T10:01:47.834Z,18.03
2022-10-16T10:04:16.819Z,18.04
2022-10-16T10:06:47.209Z,18.06
2022-10-16T10:09:23.441Z,18.12
2022-10-16T10:11:54.453Z,18.16
2022-10-16T10:14:29.051Z,18.27
2022-10-16T10:17:15.854Z,18.34
2022-10-16T10:19:49.331Z,18.31
2022-10-16T10:22:29.978Z,18.43
2022-10-16T10:25:09.799Z,18.47
2022-10-16T10:27:45.936Z,18.57
2022-10-16T10:30:21.850Z,18.61
2022-10-16T10:32:58.271Z,18.66
2022-10-16T10:35:36.254Z,18.69
2022-10-16T10:38:18.246Z,18.75
2022-10-16T10:40:58.317Z,18.91
2022-10-16T10:43:42.447Z,18.99
2022-10-16T10:46:18.323Z,19.13
2022-10-16T10:49:00.516Z,19.25
2022-10-16T10:51:34.004Z,19.32
2022-10-16T10:54:15.685Z,19.31
2022-10-16T10:56:57.547Z,19.34
2022-10-16T10:59:40.588Z,19.45
2022-10-16T11:02:17.778Z,19.49
2022-10-16T11:05:10.223Z,19.58
2022-10-16T11:07:45.751Z,19.67
2022-10-16T11:10:17.732Z,19.72
2022-10-16T11:12:51.991Z,19.78
2022-10-16T11:15:23.354Z,19.82
2022-10-16T11:17:57.825Z,19.84
2022-10-16T11:20:28.817Z,19.95
2022-10-16T11:23:02.141Z,19.97
2022-10-16T11:25:32.356Z,20.06
2022-10-16T11:28:09.595Z,20.12
2022-10-16T11:30:46.387Z,20.21
2022-10-16T11:33:32.450Z,20.31
2022-10-16T11:36:09.590Z,20.34
2022-10-16T11:38:45.615Z,20.35
2022-10-16T11:41:21.156Z,20.34
2022-10-16T11:43:59.121Z,20.32
2022-10-16T11:46:29.792Z,20.40
2022-10-16T11:49:05.583Z,20.51
2022-10-16T11:51:37.783Z,20.58
2022-10-16T11:54:17.030Z,20.61
2022-10-16T11:56:47.973Z,20.67
2022-10-16T11:59:26.050Z,20.70
2022-10-16T12:01:59.273Z,20.76
2022-10-16T12:04:34.981Z,20.74
2022-10-16T12:07:08.051Z,20.79
2022-10-16T12:09:39.742Z,20.94
2022-10-16T12:12:29.104Z,21.06
2022-10-16T12:15:26.005Z,21.08
2022-10-16T12:18:03.678Z,21.13
2022-10-16T12:20:33.625Z,21.19
2022-10-16T12:23:03.758Z,21.26
2022-10-16T12:25:34.643Z,21.19
2022-10-16T12:28:06.106Z,21.24
2022-10-16T12:30:38.210Z,21.19
2022-10-16T12:33:08.112Z,21.33
2022-10-16T12:35:45.444Z,21.42
2022-10-16T12:38:22.061Z,21.43
2022-10-16T12:41:00.015Z,21.51
2022-10-16T12:43:36.913Z,21.60
2022-10-16T12:46:22.524Z,21.69
2022-10-16T12:49:08.333Z,21.78
2022-10-16T12:51:38.364Z,21.72
2022-10-16T12:54:14.195Z,21.74
2022-10-16T12:56:51.660Z,21.79
2022-10-16T12:59:31.570Z,21.71
2022-10-16T13:02:33.976Z,21.74
2022-10-16T13:05:15.314Z,21.84
2022-10-16T13:07:56.047Z,21.96
2022-10-16T13:10:29.547Z,22.08
2022-10-16T13:13:26.958Z,22.13
2022-10-16T13:16:05.988Z,22.17
2022-10-16T13:18:44.336Z,22.17
2022-10-16T13:21:23.816Z,22.25
2022-10-16T13:24:01.257Z,22.30
2022-10-16T13:26:37.996Z,22.27
2022-10-16T13:29:06.609Z,22.21
2022-10-16T13:31:35.465Z,22.18
2022-10-16T13:34:05.544Z,22.17
2022-10-16T13:36:38.023Z,22.26
2022-10-16T13:39:14.859Z,22.39
2022-10-16T13:41:43.472Z,22.60
2022-10-16T13:44:18.099Z,22.72
2022-10-16T13:46:46.062Z,22.77
2022-10-16T13:49:17.757Z,22.74
2022-10-16T13:51:57.217Z,22.75
2022-10-16T13:54:25.662Z,22.79
2022-10-16T13:57:03.196Z,22.73
2022-10-16T13:59:39.900Z,22.83
2022-10-16T14:02:17.028Z,22.86
2022-10-16T14:04:46.991Z,22.88
2022-10-16T14:07:21.736Z,22.92
2022-10-16T14:09:52.109Z,23.03
2022-10-16T14:12:22.910Z,23.04
2022-10-16T14:14:55.948Z,23.18
2022-10-16T14:17:26.953Z,23.26
2022-10-16T14:20:02.424Z,23.18
2022-10-16T14:22:35.338Z,23.13
2022-10-16T14:25:03.715Z,23.09
2022-10-16T14:27:34.718Z,23.05
2022-10-16T14:30:22.262Z,23.16
2022-10-16T14:32:58.849Z,23.32
2022-10-16T14:35:31.343Z,23.35
2022-10-16T14:38:01.570Z,23.25
2022-10-16T14:40:31.946Z,23.20
2022-10-16T14:43:00.682Z,23.21
2022-10-16T14:45:32.149Z,23.41
2022-10-16T14:48:03.351Z,23.42
2022-10-16T14:50:32.740Z,23.37
2022-10-16T14:53:01.277Z,23.46
2022-10-16T14:55:29.294Z,23.43
2022-10-16T14:57:59.837Z,23.46
2022-10-16T15:00:29.428Z,23.63
2022-10-16T15:02:57.435Z,23.64
2022-10-16T15:05:27.407Z,23.61
2022-10-16T15:07:57.592Z,23.48
2022-10-16T15:10:29.150Z,23.30
2022-10-16T15:12:57.238Z,23.26
2022-10-16T15:15:36.974Z,23.38
2022-10-16T15:18:05.159Z,23.48
2022-10-16T15:20:35.367Z,23.46
2022-10-16T15:23:08.098Z,23.52
2022-10-16T15:25:40.711Z,23.56
2022-10-16T15:28:08.989Z,23.61
2022-10-16T15:30:38.061Z,23.60
2022-10-16T15:33:07.572Z,23.54
2022-10-16T15:35:35.469Z,23.53
2022-10-16T15:38:04.800Z,23.39
2022-10-16T15:40:33.096Z,23.35
2022-10-16T15:43:01.015Z,23.37
2022-10-16T15:45:28.903Z,23.27
2022-10-16T15:47:56.873Z,23.07
2022-10-16T15:50:24.943Z,23.06
2022-10-16T15:52:53.254Z,22.89
2022-10-16T15:55:22.574Z,22.79
2022-10-16T15:57:50.501Z,22.66
2022-10-16T16:00:21.787Z,22.57
2022-10-16T16:02:53.649Z,22.55
2022-10-16T16:05:22.242Z,22.52
2022-10-16T16:07:50.948Z,22.34
2022-10-16T16:10:20.548Z,22.28
2022-10-16T16:12:53.650Z,22.11
2022-10-16T16:15:22.693Z,21.91
2022-10-16T16:17:51.416Z,21.72
2022-10-16T16:20:19.344Z,21.66
2022-10-16T16:22:47.260Z,21.58
2022-10-16T16:25:15.254Z,21.45
2022-10-16T16:27:43.305Z,21.41
2022-10-16T16:30:18.286Z,21.37
2022-10-16T16:32:47.840Z,21.34
2022-10-16T16:35:16.050Z,21.26
2022-10-16T16:37:44.041Z,21.28
2022-10-16T16:40:12.259Z,21.27
2022-10-16T16:42:40.180Z,21.16
2022-10-16T16:45:09.507Z,21.10
2022-10-16T16:47:39.448Z,21.07
2022-10-16T16:50:08.104Z,21.00
2022-10-16T16:52:36.383Z,20.91
2022-10-16T16:55:05.071Z,20.86
2022-10-16T16:57:32.983Z,20.74
2022-10-16T17:00:00.944Z,20.61
2022-10-16T17:02:28.942Z,20.50
2022-10-16T17:04:58.773Z,20.38
2022-10-16T17:07:28.639Z,20.27
2022-10-16T17:09:56.862Z,20.23
2022-10-16T17:12:24.943Z,20.17
2022-10-16T17:14:53.081Z,20.08
2022-10-16T17:17:20.994Z,20.03
2022-10-16T17:19:51.772Z,20.12
2022-10-16T17:22:21.801Z,20.15
2022-10-16T17:24:52.253Z,20.09
2022-10-16T17:27:20.310Z,19.91
2022-10-16T17:29:52.565Z,19.84
2022-10-16T17:32:21.937Z,19.74
2022-10-16T17:34:49.842Z,19.75
2022-10-16T17:37:18.292Z,19.70
2022-10-16T17:39:48.024Z,19.59
2022-10-16T17:42:15.965Z,19.52
2022-10-16T17:44:44.039Z,19.44
2022-10-16T17:47:12.052Z,19.37
2022-10-16T17:49:39.954Z,19.31
2022-10-16T17:52:07.890Z,19.27
2022-10-16T17:54:35.836Z,19.23
2022-10-16T17:57:05.416Z,19.21
2022-10-16T17:59:33.403Z,19.16
2022-10-16T18:02:01.400Z,19.13
2022-10-16T18:04:29.439Z,19.12
2022-10-16T18:06:57.404Z,19.08
2022-10-16T18:09:25.322Z,19.02
2022-10-16T18:11:59.870Z,19.00
2022-10-16T18:14:31.096Z,18.96
2022-10-16T18:16:59.953Z,18.93
2022-10-16T18:19:28.303Z,18.86
2022-10-16T18:21:56.641Z,18.83
2022-10-16T18:24:25.823Z,18.81
2022-10-16T18:26:56.870Z,18.81
2022-10-16T18:29:25.875Z,18.80
2022-10-16T18:31:55.328Z,18.80
2022-10-16T18:34:23.273Z,18.78
2022-10-16T18:36:54.266Z,18.76
2022-10-16T18:39:24.758Z,18.71
2022-10-16T18:41:59.483Z,18.70
2022-10-16T18:44:27.709Z,18.71
2022-10-16T18:46:57.281Z,18.69
2022-10-16T18:49:27.405Z,18.66
2022-10-16T18:51:56.800Z,18.66
2022-10-16T18:54:25.749Z,18.60
2022-10-16T18:56:54.156Z,18.56
2022-10-16T18:59:22.312Z,18.56
2022-10-16T19:01:51.173Z,18.49
2022-10-16T19:04:22.879Z,18.50
2022-10-16T19:06:54.065Z,18.52
2022-10-16T19:09:25.581Z,18.52
2022-10-16T19:11:53.808Z,18.50
2022-10-16T19:14:21.840Z,18.44
2022-10-16T19:16:49.948Z,18.18
2022-10-16T19:19:20.614Z,18.13
2022-10-16T19:21:55.810Z,18.14
2022-10-16T19:24:23.720Z,18.19
2022-10-16T19:26:51.643Z,18.17
2022-10-16T19:29:20.491Z,18.20
2022-10-16T19:31:48.457Z,18.21
2022-10-16T19:34:16.394Z,18.19
2022-10-16T19:36:45.755Z,18.19
2022-10-16T19:39:17.265Z,18.16
2022-10-16T19:41:45.388Z,18.11
2022-10-16T19:44:15.529Z,18.08
2022-10-16T19:46:44.132Z,18.06
2022-10-16T19:49:14.403Z,18.04
2022-10-16T19:51:42.377Z,18.04
2022-10-16T19:54:14.277Z,17.98
2022-10-16T19:56:43.663Z,17.95
2022-10-16T19:59:16.240Z,17.94
2022-10-16T20:01:44.285Z,17.93
2022-10-16T20:04:12.960Z,17.86
2022-10-16T20:06:41.117Z,17.81
2022-10-16T20:09:09.252Z,17.83
2022-10-16T20:11:39.131Z,17.76
2022-10-16T20:14:07.875Z,17.74
2022-10-16T20:16:35.910Z,17.69
2022-10-16T20:19:04.744Z,17.70
2022-10-16T20:21:34.722Z,17.70
2022-10-16T20:24:04.378Z,17.66
2022-10-16T20:26:32.422Z,17.67
2022-10-16T20:29:02.273Z,17.67
2022-10-16T20:31:31.929Z,17.64
2022-10-16T20:34:04.590Z,17.66
2022-10-16T20:36:33.900Z,17.62
2022-10-16T20:39:02.695Z,17.62
2022-10-16T20:41:31.244Z,17.64
2022-10-16T20:44:01.585Z,17.64
2022-10-16T20:46:30.277Z,17.64
2022-10-16T20:49:06.192Z,17.65
2022-10-16T20:51:39.682Z,17.60
2022-10-16T20:54:08.497Z,17.60
2022-10-16T20:56:37.673Z,17.61
2022-10-16T20:59:07.848Z,17.61
2022-10-16T21:01:37.104Z,17.51
2022-10-16T21:04:07.883Z,17.41
2022-10-16T21:06:39.336Z,17.35
2022-10-16T21:09:08.077Z,17.36
2022-10-16T21:11:37.403Z,17.36
2022-10-16T21:14:08.746Z,17.39
2022-10-16T21:16:36.793Z,17.41
2022-10-16T21:19:05.993Z,17.42
2022-10-16T21:21:36.407Z,17.42
2022-10-16T21:24:04.589Z,17.38
2022-10-16T21:26:32.961Z,17.32
2022-10-16T21:29:03.910Z,17.32
2022-10-16T21:31:34.366Z,17.28
2022-10-16T21:34:03.146Z,17.28
2022-10-16T21:36:32.975Z,17.28
2022-10-16T21:39:03.299Z,17.31
2022-10-16T21:41:31.945Z,17.32
2022-10-16T21:44:01.537Z,17.23
2022-10-16T21:46:32.208Z,17.18
2022-10-16T21:49:05.002Z,17.18
2022-10-16T21:51:34.784Z,17.21
2022-10-16T21:54:02.797Z,17.24
2022-10-16T21:56:31.103Z,17.20
2022-10-16T21:58:59.417Z,17.19
2022-10-16T22:01:28.960Z,17.17
2022-10-16T22:03:56.934Z,17.12
2022-10-16T22:06:28.063Z,17.08
2022-10-16T22:08:59.468Z,17.08
2022-10-16T22:11:31.336Z,17.03
2022-10-16T22:13:59.292Z,16.88
2022-10-16T22:16:28.133Z,16.92
2022-10-16T22:18:57.880Z,16.92
2022-10-16T22:21:28.529Z,16.91
2022-10-16T22:23:56.760Z,16.89
2022-10-16T22:26:24.638Z,16.86
2022-10-16T22:28:52.990Z,16.79
2022-10-16T22:31:21.713Z,16.75
2022-10-16T22:33:49.626Z,16.73
2022-10-16T22:36:17.576Z,16.72
2022-10-16T22:38:46.925Z,16.73
2022-10-16T22:41:15.988Z,16.66
2022-10-16T22:43:45.754Z,16.63
2022-10-16T22:46:15.365Z,16.62
2022-10-16T22:48:43.862Z,16.60
2022-10-16T22:51:16.674Z,16.63
2022-10-16T22:53:47.697Z,16.61
2022-10-16T22:56:16.714Z,16.50
2022-10-16T22:58:45.179Z,16.36
2022-10-16T23:01:15.375Z,16.40
2022-10-16T23:03:43.331Z,16.42
2022-10-16T23:06:11.427Z,16.44
2022-10-16T23:08:39.463Z,16.45
2022-10-16T23:11:11.114Z,16.48
2022-10-16T23:13:39.372Z,16.51
2022-10-16T23:16:08.702Z,16.48
2022-10-16T23:18:36.758Z,16.45
2022-10-16T23:21:06.698Z,16.48
2022-10-16T23:23:35.895Z,16.49
2022-10-16T23:26:03.961Z,16.49
2022-10-16T23:28:33.329Z,16.42
2022-10-16T23:31:01.293Z,16.35
2022-10-16T23:33:29.257Z,16.35
2022-10-16T23:35:57.169Z,16.40
2022-10-16T23:38:25.083Z,16.40
2022-10-16T23:40:52.995Z,16.43
2022-10-16T23:43:20.917Z,16.44
2022-10-16T23:45:50.322Z,16.48
2022-10-16T23:48:18.240Z,16.49
2022-10-16T23:50:46.198Z,16.51
2022-10-16T23:53:15.067Z,16.52
2022-10-16T23:55:43.331Z,16.52
2022-10-16T23:58:11.306Z,16.53
